Time;durP1;ratioP1;P1;durP2;ratioP2;P2;SDS_P1;SDS_P2;PMS_P1;PMS_P2;Temp;Humidity;BMP_temperature;BMP_pressure;BME280_temperature;BME280_humidity;BME280_pressure;Samples;Min_cycle;Max_cycle;Signal;HPM_P1;HPM_P2
2023/05/13 00:02:10;;;;;;;;;;;;;;;14.06;71.06;100815.34;5327409;32;34757;-68
2023/05/13 00:05:13;;;;;;;;;;;;;;;13.59;72.34;100809.59;5321875;32;35099;-68
2023/05/13 00:08:15;;;;;;;;;;;;;;;14.06;71.06;100807.41;5332368;32;33937;-69
2023/05/13 00:11:17;;;;;;;;;;;;;;;14.03;70.87;100810.19;5320295;32;44605;-84
2023/05/13 00:14:19;;;;;;;;;;;;;;;13.43;72.36;100808.56;5328594;32;35023;-68
2023/05/13 00:17:21;;;;;;;;;;;;;;;13.01;75.34;100807.69;5326400;32;34481;-77
2023/05/13 00:20:23;;;;;;;;;;;;;;;13.17;75.57;100812.28;5335307;32;34529;-77
2023/05/13 00:23:25;;;;;;;;;;;;;;;13.30;74.04;100807.38;5326155;32;34893;-82
2023/05/13 00:26:27;;;;;;;;;;;;;;;13.71;73.43;100808.16;5335390;32;34783;-81
2023/05/13 00:29:30;;;;;;;;;;;;;;;13.83;71.94;100808.47;5309821;32;35985;-70
2023/05/13 00:32:32;;;;;;;;;;;;;;;13.81;72.11;100805.03;5333087;32;34332;-68
2023/05/13 00:35:34;;;;;;;;;;;;;;;13.96;70.43;100808.75;5308212;32;34941;-68
2023/05/13 00:38:36;;;;;;;;;;;;;;;13.11;73.01;100817.84;5307678;32;34827;-83
2023/05/13 00:41:38;;;;;;;;;;;;;;;13.72;73.02;100820.47;5336350;32;34777;-68
2023/05/13 00:44:40;;;;;;;;;;;;;;;13.99;70.64;100819.19;5330241;32;35117;-68
2023/05/13 00:47:42;;;;;;;;;;;;;;;13.78;70.43;100815.75;5319252;32;35424;-82
2023/05/13 00:50:44;;;;;;;;;;;;;;;13.59;71.33;100822.81;5319753;32;35622;-76
2023/05/13 00:53:46;;;;;;;;;;;;;;;14.26;69.22;100821.47;5318070;32;44350;-68
2023/05/13 00:56:53;;;;;;;;;;;;;;;13.63;72.23;100823.50;5331515;32;35022;-81
2023/05/13 00:59:55;;;;;;;;;;;;;;;13.59;73.06;100824.56;5325941;32;35447;-69
2023/05/13 01:03:00;;;;;;;;;;;;;;;14.05;70.80;100818.91;5343439;32;35570;-69
2023/05/13 01:06:28;;;;;;;;;;;;;;;13.93;71.50;100819.47;5326379;32;35166;-81
2023/05/13 01:09:49;;;;;;;;;;;;;;;13.94;71.61;100820.34;5326005;32;34421;-83
2023/05/13 01:12:52;;;;;;;;;;;;;;;13.81;71.81;100826.19;5333446;32;44938;-78
2023/05/13 01:16:06;;;;;;;;;;;;;;;13.80;72.93;100834.19;5326042;32;34298;-78
2023/05/13 01:19:23;;;;;;;;;;;;;;;13.38;75.54;100826.38;5336156;32;35260;-80
2023/05/13 01:22:25;;;;;;;;;;;;;;;13.04;74.49;100837.50;5325676;32;44641;-79
2023/05/13 01:25:27;;;;;;;;;;;;;;;13.14;75.23;100825.62;5334277;32;34072;-68
2023/05/13 01:28:29;;;;;;;;;;;;;;;13.87;71.39;100827.69;5326790;32;35504;-68
2023/05/13 01:31:31;;;;;;;;;;;;;;;14.05;69.69;100829.50;5311962;32;35257;-81
2023/05/13 01:34:33;;;;;;;;;;;;;;;14.11;69.35;100832.78;5324487;32;34392;-80
2023/05/13 01:37:35;;;;;;;;;;;;;;;14.18;68.27;100835.06;5308854;32;35213;-67
2023/05/13 01:40:39;;;;;;;;;;;;;;;13.81;70.41;100835.88;5335936;32;34386;-69
2023/05/13 01:43:41;;;;;;;;;;;;;;;13.30;73.11;100834.63;5325705;32;35899;-70
2023/05/13 01:46:43;;;;;;;;;;;;;;;13.54;71.53;100838.84;5312990;32;34925;-82
2023/05/13 01:49:45;;;;;;;;;;;;;;;13.21;71.85;100835.03;5314141;32;33802;-81
2023/05/13 01:52:47;;;;;;;;;;;;;;;12.73;76.12;100844.03;5333267;32;35730;-81
2023/05/13 01:55:49;;;;;;;;;;;;;;;12.78;75.59;100841.22;5338145;32;35967;-68
2023/05/13 01:58:51;;;;;;;;;;;;;;;12.76;77.11;100837.78;5311567;32;34682;-68
2023/05/13 02:01:53;;;;;;;;;;;;;;;12.50;78.04;100841.47;5335714;32;36653;-76
2023/05/13 02:04:55;;;;;;;;;;;;;;;13.23;76.16;100839.31;5321993;32;36270;-67
2023/05/13 02:07:57;;;;;;;;;;;;;;;13.40;74.80;100835.97;5338740;32;35936;-68
2023/05/13 02:10:59;;;;;;;;;;;;;;;13.10;77.39;100838.09;5315423;32;35627;-81
2023/05/13 02:14:01;;;;;;;;;;;;;;;13.92;72.53;100833.63;5325022;32;35476;-68
2023/05/13 02:17:03;;;;;;;;;;;;;;;13.42;73.38;100849.94;5321441;32;36986;-82
2023/05/13 02:20:06;;;;;;;;;;;;;;;12.95;75.27;100844.88;5325596;32;35614;-68
2023/05/13 02:23:07;;;;;;;;;;;;;;;12.48;74.68;100844.16;5335797;32;34987;-68
2023/05/13 02:26:10;;;;;;;;;;;;;;;13.30;71.93;100844.34;5311873;32;34436;-69
2023/05/13 02:29:12;;;;;;;;;;;;;;;12.48;75.69;100850.28;5329937;32;35274;-76
2023/05/13 02:32:14;;;;;;;;;;;;;;;12.09;76.81;100852.69;5327915;32;34233;-68
2023/05/13 02:35:17;;;;;;;;;;;;;;;13.03;73.27;100839.28;5310002;32;46234;-69
2023/05/13 02:38:19;;;;;;;;;;;;;;;13.13;72.60;100845.00;5315380;32;35501;-69
2023/05/13 02:41:20;;;;;;;;;;;;;;;12.97;72.78;100839.53;5329889;32;34136;-77
2023/05/13 02:44:23;;;;;;;;;;;;;;;11.81;78.26;100852.00;5336003;32;36879;-68
2023/05/13 02:47:26;;;;;;;;;;;;;;;13.04;72.78;100845.41;5312456;32;35539;-69
2023/05/13 02:50:28;;;;;;;;;;;;;;;12.77;72.36;100852.69;5322014;32;35179;-68
2023/05/13 02:53:30;;;;;;;;;;;;;;;12.69;75.62;100858.28;5330809;32;34448;-83
2023/05/13 02:56:32;;;;;;;;;;;;;;;12.43;77.40;100859.31;5311334;32;34728;-84
2023/05/13 02:59:34;;;;;;;;;;;;;;;12.90;74.98;100860.03;5334413;32;34606;-82
2023/05/13 03:02:36;;;;;;;;;;;;;;;12.97;72.64;100856.22;5325456;32;35329;-68
2023/05/13 03:05:38;;;;;;;;;;;;;;;12.35;74.09;100859.59;5334938;32;34847;-68
2023/05/13 03:08:40;;;;;;;;;;;;;;;12.87;73.16;100849.59;5328831;32;35770;-68
2023/05/13 03:11:42;;;;;;;;;;;;;;;13.17;72.25;100850.09;5328374;32;34982;-83
2023/05/13 03:14:44;;;;;;;;;;;;;;;12.92;73.35;100852.91;5316746;32;36056;-82
2023/05/13 03:17:46;;;;;;;;;;;;;;;12.55;75.82;100857.94;5310341;32;45069;-67
2023/05/13 03:20:48;;;;;;;;;;;;;;;13.07;73.17;100853.19;5334153;32;35439;-83
2023/05/13 03:23:50;;;;;;;;;;;;;;;12.62;74.26;100855.03;5324601;32;34313;-81
2023/05/13 03:26:52;;;;;;;;;;;;;;;12.42;74.85;100863.69;5337174;32;34522;-76
2023/05/13 03:29:54;;;;;;;;;;;;;;;12.58;76.26;100865.75;5327058;32;34316;-68
2023/05/13 03:32:56;;;;;;;;;;;;;;;12.62;75.77;100872.59;5322655;32;35276;-68
2023/05/13 03:35:58;;;;;;;;;;;;;;;12.52;74.31;100871.25;5296423;32;34791;-81
2023/05/13 03:39:00;;;;;;;;;;;;;;;12.36;75.68;100871.00;5325390;32;35161;-80
2023/05/13 03:42:03;;;;;;;;;;;;;;;13.63;70.50;100868.41;5336724;32;34735;-75
2023/05/13 03:45:05;;;;;;;;;;;;;;;13.49;70.02;100880.44;5326345;32;35427;-67
2023/05/13 03:48:07;;;;;;;;;;;;;;;13.35;71.01;100874.03;5319076;32;34491;-81
2023/05/13 03:51:09;;;;;;;;;;;;;;;12.53;74.67;100886.16;5324924;32;35366;-81
2023/05/13 03:54:10;;;;;;;;;;;;;;;13.21;72.31;100883.41;5330843;32;34930;-81
2023/05/13 03:57:12;;;;;;;;;;;;;;;13.03;71.69;100884.13;5333178;32;36717;-69
2023/05/13 04:00:14;;;;;;;;;;;;;;;11.96;77.36;100887.44;5326157;32;34891;-68
2023/05/13 04:03:17;;;;;;;;;;;;;;;13.65;70.26;100885.03;5335772;32;45231;-81
2023/05/13 04:06:19;;;;;;;;;;;;;;;12.33;77.71;100900.12;5311661;32;34606;-81
2023/05/13 04:09:21;;;;;;;;;;;;;;;12.57;75.49;100900.97;5335160;32;35551;-69
2023/05/13 04:12:23;;;;;;;;;;;;;;;11.98;79.88;100902.31;5326082;32;34288;-77
2023/05/13 04:15:25;;;;;;;;;;;;;;;12.92;73.56;100903.03;5329595;32;36647;-82
2023/05/13 04:18:30;;;;;;;;;;;;;;;12.49;78.63;100906.50;5333602;32;35128;-68
2023/05/13 04:21:32;;;;;;;;;;;;;;;13.06;74.30;100905.09;5312895;32;35409;-69
2023/05/13 04:24:34;;;;;;;;;;;;;;;12.94;74.28;100906.44;5337635;32;34959;-69
2023/05/13 04:27:36;;;;;;;;;;;;;;;12.56;77.45;100915.91;5325666;32;34455;-68
2023/05/13 04:30:38;;;;;;;;;;;;;;;12.93;74.86;100915.28;5336012;32;34495;-81
2023/05/13 04:33:40;;;;;;;;;;;;;;;12.73;76.57;100920.50;5323982;32;35375;-82
2023/05/13 04:36:41;;;;;;;;;;;;;;;12.35;78.80;100922.84;5302960;32;34872;-69
2023/05/13 04:39:44;;;;;;;;;;;;;;;12.58;78.94;100918.50;5335721;32;35840;-76
2023/05/13 04:42:53;;;;;;;;;;;;;;;12.35;78.17;100922.84;5325928;32;44682;-81
2023/05/13 04:45:55;;;;;;;;;;;;;;;12.56;79.99;100922.94;5336129;32;34059;-81
2023/05/13 04:48:59;;;;;;;;;;;;;;;12.25;80.50;100924.13;5306972;32;35223;-83
2023/05/13 04:52:04;;;;;;;;;;;;;;;12.73;79.91;100917.88;5337372;32;35037;-83
2023/05/13 04:55:06;;;;;;;;;;;;;;;12.96;77.54;100919.59;5323513;32;34853;-68
2023/05/13 04:58:08;;;;;;;;;;;;;;;12.70;76.89;100926.78;5326330;32;34773;-81
2023/05/13 05:01:10;;;;;;;;;;;;;;;12.41;80.18;100933.16;5322452;32;35466;-83
2023/05/13 05:04:12;;;;;;;;;;;;;;;12.47;79.98;100925.03;5326359;32;35158;-83
2023/05/13 05:07:14;;;;;;;;;;;;;;;12.60;78.33;100929.81;5342635;32;35587;-69
2023/05/13 05:10:16;;;;;;;;;;;;;;;12.81;77.48;100928.97;5324144;32;46934;-82
2023/05/13 05:13:18;;;;;;;;;;;;;;;13.63;72.71;100939.72;5334992;32;34612;-81
2023/05/13 05:16:20;;;;;;;;;;;;;;;12.65;77.75;100941.06;5328208;32;35496;-83
2023/05/13 05:19:22;;;;;;;;;;;;;;;13.13;76.86;100947.94;5326940;32;34902;-68
2023/05/13 05:22:25;;;;;;;;;;;;;;;14.18;69.76;100934.66;5336741;32;35515;-81
2023/05/13 05:25:27;;;;;;;;;;;;;;;13.87;70.50;100940.44;5326884;32;34603;-82
2023/05/13 05:28:29;;;;;;;;;;;;;;;14.24;69.59;100943.16;5322065;32;34689;-68
2023/05/13 05:31:31;;;;;;;;;;;;;;;13.87;71.06;100951.87;5324039;32;34825;-68
2023/05/13 05:34:33;;;;;;;;;;;;;;;14.17;70.42;100943.50;5323593;32;36562;-68
2023/05/13 05:37:35;;;;;;;;;;;;;;;14.31;68.78;100936.66;5300071;32;35163;-83
2023/05/13 05:40:38;;;;;;;;;;;;;;;13.71;70.92;100941.09;5324446;32;34833;-68
2023/05/13 05:43:40;;;;;;;;;;;;;;;13.82;71.17;100941.50;5335508;32;35342;-67
2023/05/13 05:46:42;;;;;;;;;;;;;;;13.38;73.26;100946.03;5318348;32;34471;-69
2023/05/13 05:49:45;;;;;;;;;;;;;;;12.81;75.73;100955.34;5320816;32;35020;-83
2023/05/13 05:52:47;;;;;;;;;;;;;;;13.45;73.49;100938.72;5309082;32;44546;-69
2023/05/13 05:55:48;;;;;;;;;;;;;;;13.30;74.34;100953.41;5318634;32;35380;-81
2023/05/13 05:58:53;;;;;;;;;;;;;;;12.96;74.52;100946.00;5331015;32;35226;-69
2023/05/13 06:01:56;;;;;;;;;;;;;;;13.38;73.86;100942.53;5325391;32;34317;-68
2023/05/13 06:04:58;;;;;;;;;;;;;;;13.46;73.32;100951.00;5335054;32;37247;-78
2023/05/13 06:07:59;;;;;;;;;;;;;;;13.36;73.77;100965.50;5324244;32;34532;-78
2023/05/13 06:11:01;;;;;;;;;;;;;;;12.81;75.45;100960.62;5335282;32;35040;-83
2023/05/13 06:14:06;;;;;;;;;;;;;;;13.49;73.37;100958.78;5312592;32;34605;-69
2023/05/13 06:17:13;;;;;;;;;;;;;;;13.32;71.49;100959.47;5328497;32;35305;-68
2023/05/13 06:20:17;;;;;;;;;;;;;;;13.37;71.72;100970.72;5331351;32;44699;-84
2023/05/13 06:23:20;;;;;;;;;;;;;;;13.80;70.35;100956.56;5325246;32;34938;-68
2023/05/13 06:26:22;;;;;;;;;;;;;;;13.63;70.28;100967.00;5335224;32;36384;-83
2023/05/13 06:29:24;;;;;;;;;;;;;;;12.66;74.09;100974.41;5324660;32;35304;-84
2023/05/13 06:32:26;;;;;;;;;;;;;;;13.21;72.67;100980.22;5335375;32;34882;-68
2023/05/13 06:35:28;;;;;;;;;;;;;;;13.52;70.16;100974.50;5305944;32;35506;-68
2023/05/13 06:38:30;;;;;;;;;;;;;;;13.22;72.14;100974.84;5311983;32;35063;-69
2023/05/13 06:41:32;;;;;;;;;;;;;;;13.44;72.71;100988.03;5331867;32;34914;-68
2023/05/13 06:44:34;;;;;;;;;;;;;;;13.12;74.69;100977.88;5327396;32;37989;-70
2023/05/13 06:47:36;;;;;;;;;;;;;;;13.74;71.99;100979.75;5324444;32;35600;-85
2023/05/13 06:50:38;;;;;;;;;;;;;;;13.08;73.57;100977.16;5320789;32;35040;-69
2023/05/13 06:53:40;;;;;;;;;;;;;;;13.93;70.50;100978.03;5336029;32;35216;-68
2023/05/13 06:56:42;;;;;;;;;;;;;;;13.45;71.79;100975.69;5308740;32;34759;-69
2023/05/13 06:59:44;;;;;;;;;;;;;;;14.18;69.69;100967.25;5329371;32;35663;-69
2023/05/13 07:02:46;;;;;;;;;;;;;;;13.00;74.05;100969.53;5334411;32;44952;-84
2023/05/13 07:05:48;;;;;;;;;;;;;;;14.12;71.07;100962.22;5326565;32;35265;-84
2023/05/13 07:08:50;;;;;;;;;;;;;;;13.62;73.15;100972.34;5337748;32;35659;-68
2023/05/13 07:11:52;;;;;;;;;;;;;;;13.52;72.16;100977.13;5325214;32;33695;-84
2023/05/13 07:14:54;;;;;;;;;;;;;;;13.49;70.59;100969.34;5337182;32;35149;-84
2023/05/13 07:17:56;;;;;;;;;;;;;;;13.16;75.28;100971.56;5327779;32;35439;-77
2023/05/13 07:20:59;;;;;;;;;;;;;;;13.47;72.78;100980.00;5329593;32;35353;-69
2023/05/13 07:24:01;;;;;;;;;;;;;;;14.31;69.22;100964.91;5337450;32;35210;-78
2023/05/13 07:27:03;;;;;;;;;;;;;;;14.18;69.62;100966.38;5327332;32;34915;-84
2023/05/13 07:30:05;;;;;;;;;;;;;;;13.71;73.51;100978.06;5337492;32;34803;-68
2023/05/13 07:33:10;;;;;;;;;;;;;;;13.15;75.10;100981.28;5326595;32;35139;-83
2023/05/13 07:36:12;;;;;;;;;;;;;;;13.35;74.68;100979.63;5313527;32;34651;-69
2023/05/13 07:39:13;;;;;;;;;;;;;;;13.89;72.33;100980.88;5325589;32;36401;-78
2023/05/13 07:42:17;;;;;;;;;;;;;;;13.99;71.14;100976.91;5326630;32;43773;-83
2023/05/13 07:45:18;;;;;;;;;;;;;;;12.90;75.77;100989.31;5337965;32;34860;-69
2023/05/13 07:48:23;;;;;;;;;;;;;;;13.46;72.66;100996.75;5309599;32;34746;-84
2023/05/13 07:51:25;;;;;;;;;;;;;;;12.91;73.98;100991.00;5339986;32;35881;-83
2023/05/13 07:54:27;;;;;;;;;;;;;;;13.30;73.46;100986.88;5324405;32;35067;-69
2023/05/13 07:57:29;;;;;;;;;;;;;;;12.89;75.50;100998.16;5321990;32;34842;-83
2023/05/13 08:00:31;;;;;;;;;;;;;;;12.82;76.97;101001.94;5313733;32;34324;-68
2023/05/13 08:03:33;;;;;;;;;;;;;;;13.83;70.96;100993.41;5326640;32;36807;-68
2023/05/13 08:06:38;;;;;;;;;;;;;;;14.36;67.41;100990.22;5336479;32;35689;-83
2023/05/13 08:09:41;;;;;;;;;;;;;;;13.27;73.27;101007.22;5327840;32;34946;-84
2023/05/13 08:12:49;;;;;;;;;;;;;;;13.34;73.48;101012.25;5337353;32;35737;-69
2023/05/13 08:15:51;;;;;;;;;;;;;;;13.18;74.37;101012.81;5310613;32;44572;-84
2023/05/13 08:18:53;;;;;;;;;;;;;;;13.19;75.18;101021.59;5335106;32;35595;-84
2023/05/13 08:21:55;;;;;;;;;;;;;;;13.19;73.79;101025.09;5329399;32;33801;-68
2023/05/13 08:24:59;;;;;;;;;;;;;;;13.38;72.91;101030.53;5327959;32;34782;-68
2023/05/13 08:28:02;;;;;;;;;;;;;;;12.84;74.76;101030.88;5322896;32;34839;-84
2023/05/13 08:31:04;;;;;;;;;;;;;;;13.44;70.48;101032.91;5314335;32;34931;-68
2023/05/13 08:34:06;;;;;;;;;;;;;;;12.78;75.43;101034.63;5320601;32;36139;-68
2023/05/13 08:37:08;;;;;;;;;;;;;;;12.82;75.64;101038.00;5302371;32;35587;-69
2023/05/13 08:40:10;;;;;;;;;;;;;;;12.87;75.75;101039.53;5332452;32;34584;-69
2023/05/13 08:43:14;;;;;;;;;;;;;;;13.71;72.49;101033.56;5330152;32;34894;-83
2023/05/13 08:46:16;;;;;;;;;;;;;;;13.41;72.79;101045.41;5325591;32;45775;-68
2023/05/13 08:49:18;;;;;;;;;;;;;;;12.94;73.53;101046.28;5315358;32;34982;-70
2023/05/13 08:52:21;;;;;;;;;;;;;;;13.76;71.28;101043.94;5313195;32;36292;-85
2023/05/13 08:55:23;;;;;;;;;;;;;;;14.30;68.44;101034.59;5324502;32;34820;-83
2023/05/13 08:58:25;;;;;;;;;;;;;;;13.45;72.02;101039.06;5326749;32;34902;-83
2023/05/13 09:01:27;;;;;;;;;;;;;;;13.61;71.89;101034.88;5331423;32;35162;-75
2023/05/13 09:04:29;;;;;;;;;;;;;;;14.12;68.35;101030.94;5332672;32;34947;-69
2023/05/13 09:07:32;;;;;;;;;;;;;;;13.55;71.33;101043.91;5312925;32;35795;-83
2023/05/13 09:10:35;;;;;;;;;;;;;;;14.50;66.86;101028.44;5323010;32;35340;-68
2023/05/13 09:13:36;;;;;;;;;;;;;;;13.66;69.17;101045.25;5312537;32;34645;-84
2023/05/13 09:16:38;;;;;;;;;;;;;;;14.47;67.70;101031.19;5338329;32;33041;-72
2023/05/13 09:19:40;;;;;;;;;;;;;;;14.45;66.99;101036.53;5326696;32;34947;-68
2023/05/13 09:22:46;;;;;;;;;;;;;;;15.30;63.40;101020.25;5334574;32;34984;-69
2023/05/13 09:25:48;;;;;;;;;;;;;;;15.18;64.36;101025.19;5317814;32;45289;-83
2023/05/13 09:28:56;;;;;;;;;;;;;;;14.12;68.79;101038.88;5309342;32;34405;-69
2023/05/13 09:31:59;;;;;;;;;;;;;;;14.27;69.09;101029.41;5327836;32;35216;-69
2023/05/13 09:35:28;;;;;;;;;;;;;;;13.65;70.67;101043.50;5297198;32;35691;-85
2023/05/13 09:38:37;;;;;;;;;;;;;;;13.79;69.44;101041.19;5320806;32;35265;-69
2023/05/13 09:41:40;;;;;;;;;;;;;;;15.77;64.61;101023.22;5333219;32;35204;-69
2023/05/13 09:44:45;;;;;;;;;;;;;;;16.48;61.37;101017.75;5328779;32;35114;-82
2023/05/13 09:47:49;;;;;;;;;;;;;;;16.21;60.69;101025.38;5308641;32;44649;-68
2023/05/13 09:50:52;;;;;;;;;;;;;;;15.80;61.95;101038.13;5321522;32;35615;-70
2023/05/13 09:53:54;;;;;;;;;;;;;;;14.70;64.80;101030.16;5337371;32;35467;-70
2023/05/13 09:57:00;;;;;;;;;;;;;;;15.38;63.21;101023.37;5325647;32;35746;-70
2023/05/13 10:00:06;;;;;;;;;;;;;;;15.35;63.55;101020.88;5311970;32;35591;-68
2023/05/13 10:03:18;;;;;;;;;;;;;;;15.44;61.44;101023.94;5325300;32;48111;-84
2023/05/13 10:06:24;;;;;;;;;;;;;;;15.72;62.43;101022.59;5328920;32;35108;-69
2023/05/13 10:09:27;;;;;;;;;;;;;;;15.05;64.12;101017.91;5326141;32;34905;-84
2023/05/13 10:12:29;;;;;;;;;;;;;;;15.56;61.63;101017.16;5326904;32;35179;-70
2023/05/13 10:15:33;;;;;;;;;;;;;;;15.52;62.08;101015.63;5319327;32;35284;-82
2023/05/13 10:18:35;;;;;;;;;;;;;;;14.86;64.45;101013.47;5316190;32;35960;-69
2023/05/13 10:21:36;;;;;;;;;;;;;;;15.42;62.50;101011.69;5311108;32;35173;-70
2023/05/13 10:24:39;;;;;;;;;;;;;;;15.26;62.63;101005.44;5338425;32;34978;-70
2023/05/13 10:27:41;;;;;;;;;;;;;;;16.04;60.29;101002.41;5309467;32;35030;-69
2023/05/13 10:30:43;;;;;;;;;;;;;;;15.56;60.19;101014.53;5334616;32;34424;-76
2023/05/13 10:33:44;;;;;;;;;;;;;;;16.30;57.18;101021.41;5322098;32;34908;-77
2023/05/13 10:36:46;;;;;;;;;;;;;;;14.79;62.16;101021.78;5306062;32;44927;-83
2023/05/13 10:40:12;;;;;;;;;;;;;;;15.11;62.10;101013.19;5328716;32;34998;-69
2023/05/13 10:43:27;;;;;;;;;;;;;;;15.85;59.41;101004.28;5316590;32;35597;-83
2023/05/13 10:46:29;;;;;;;;;;;;;;;15.25;62.45;101015.16;5324990;32;35609;-69
2023/05/13 10:49:32;;;;;;;;;;;;;;;16.14;60.37;101010.72;5303490;32;35546;-70
2023/05/13 10:52:41;;;;;;;;;;;;;;;15.81;60.67;101022.12;5318472;32;37084;-84
2023/05/13 10:55:47;;;;;;;;;;;;;;;15.39;61.13;101015.38;5315500;32;35633;-70
2023/05/13 10:59:02;;;;;;;;;;;;;;;15.13;63.19;101010.47;5324497;32;46296;-85
2023/05/13 11:02:20;;;;;;;;;;;;;;;15.57;60.67;101021.53;5335095;32;35209;-82
2023/05/13 11:05:22;;;;;;;;;;;;;;;16.08;59.40;101008.38;5310172;32;44715;-84
2023/05/13 11:08:40;;;;;;;;;;;;;;;16.38;58.59;101001.47;5325615;32;35717;-82
2023/05/13 11:11:45;;;;;;;;;;;;;;;16.38;57.30;101009.44;5317107;32;35617;-68
2023/05/13 11:14:48;;;;;;;;;;;;;;;15.93;59.15;101012.69;5322925;32;47782;-69
2023/05/13 11:17:52;;;;;;;;;;;;;;;16.33;57.90;101011.47;5333858;32;35458;-85
2023/05/13 11:20:55;;;;;;;;;;;;;;;16.57;56.29;101003.16;5308661;32;35184;-85
2023/05/13 11:23:58;;;;;;;;;;;;;;;15.84;57.88;101014.03;5338021;32;35608;-83
2023/05/13 11:27:11;;;;;;;;;;;;;;;15.43;59.21;101006.31;5309828;32;36036;-70
2023/05/13 11:30:24;;;;;;;;;;;;;;;16.03;57.50;101003.31;5323208;32;35150;-72
2023/05/13 11:33:46;;;;;;;;;;;;;;;15.88;57.71;101007.63;5332623;32;36171;-85
2023/05/13 11:36:48;;;;;;;;;;;;;;;15.81;58.41;101010.66;5285315;32;44684;-84
2023/05/13 11:39:50;;;;;;;;;;;;;;;16.16;57.73;101006.19;5319852;32;35115;-68
2023/05/13 11:42:53;;;;;;;;;;;;;;;16.04;57.59;101007.72;5325012;32;35662;-68
2023/05/13 11:45:55;;;;;;;;;;;;;;;16.22;56.70;101012.03;5311511;32;34818;-83
2023/05/13 11:48:57;;;;;;;;;;;;;;;15.70;58.68;101011.22;5299087;32;34991;-78
2023/05/13 11:52:00;;;;;;;;;;;;;;;16.49;55.84;101008.88;5326755;32;34550;-78
2023/05/13 11:55:02;;;;;;;;;;;;;;;16.51;56.76;101002.53;5336687;32;35338;-69
2023/05/13 11:58:04;;;;;;;;;;;;;;;17.04;54.37;101014.66;5325935;32;34469;-84
2023/05/13 12:01:11;;;;;;;;;;;;;;;16.60;54.98;101018.88;5321795;32;35004;-84
2023/05/13 12:04:13;;;;;;;;;;;;;;;16.51;54.10;101014.94;5312360;32;35449;-83
2023/05/13 12:07:18;;;;;;;;;;;;;;;16.48;54.95;101007.97;5327213;32;35572;-83
2023/05/13 12:10:20;;;;;;;;;;;;;;;15.79;57.10;101015.19;5322859;32;47034;-68
2023/05/13 12:13:24;;;;;;;;;;;;;;;16.17;55.92;101013.22;5310192;32;35522;-68
2023/05/13 12:16:26;;;;;;;;;;;;;;;16.46;54.83;101006.37;5322987;32;34718;-83
2023/05/13 12:19:28;;;;;;;;;;;;;;;16.23;56.16;101015.56;5324803;32;35621;-69
2023/05/13 12:22:30;;;;;;;;;;;;;;;16.76;53.53;101018.00;5334816;32;34587;-69
2023/05/13 12:25:35;;;;;;;;;;;;;;;17.39;52.18;101019.81;5326857;32;36159;-69
2023/05/13 12:28:37;;;;;;;;;;;;;;;16.56;55.15;101017.34;5327266;32;34811;-83
2023/05/13 12:31:41;;;;;;;;;;;;;;;17.04;53.18;101016.47;5336257;32;34449;-70
2023/05/13 12:34:43;;;;;;;;;;;;;;;16.61;54.25;101020.59;5313297;32;35777;-78
2023/05/13 12:37:57;;;;;;;;;;;;;;;16.22;54.85;101022.63;5309615;32;44601;-69
2023/05/13 12:41:04;;;;;;;;;;;;;;;16.82;53.11;101023.94;5326263;32;35061;-84
2023/05/13 12:44:06;;;;;;;;;;;;;;;16.58;54.25;101016.31;5315427;32;34329;-85
2023/05/13 12:47:09;;;;;;;;;;;;;;;17.52;51.65;101025.28;5321828;32;35060;-83
2023/05/13 12:50:11;;;;;;;;;;;;;;;16.50;53.83;101015.88;5314299;32;35030;-70
2023/05/13 12:53:13;;;;;;;;;;;;;;;17.30;51.99;101021.16;5336908;32;35547;-70
2023/05/13 12:56:15;;;;;;;;;;;;;;;16.47;55.09;101021.34;5311731;32;35562;-68
2023/05/13 12:59:18;;;;;;;;;;;;;;;15.79;56.75;101023.16;5321099;32;44988;-84
2023/05/13 13:02:19;;;;;;;;;;;;;;;16.41;55.83;101019.00;5326365;32;35123;-84
2023/05/13 13:05:22;;;;;;;;;;;;;;;17.29;52.91;101019.47;5327498;32;34604;-70
2023/05/13 13:08:24;;;;;;;;;;;;;;;17.50;52.21;101005.88;5322882;32;35788;-70
2023/05/13 13:11:26;;;;;;;;;;;;;;;16.96;54.58;101024.03;5325780;32;35202;-69
2023/05/13 13:14:28;;;;;;;;;;;;;;;17.07;53.74;101013.66;5321247;32;35726;-83
2023/05/13 13:17:30;;;;;;;;;;;;;;;16.63;55.63;101013.44;5325127;32;35438;-69
2023/05/13 13:20:33;;;;;;;;;;;;;;;16.78;54.81;101021.44;5335721;32;35077;-70
2023/05/13 13:23:37;;;;;;;;;;;;;;;16.57;54.89;101014.62;5324736;32;34345;-84
2023/05/13 13:26:39;;;;;;;;;;;;;;;16.44;55.50;101005.59;5327952;32;36501;-69
2023/05/13 13:29:41;;;;;;;;;;;;;;;17.22;53.04;101007.47;5332903;32;34990;-69
2023/05/13 13:32:45;;;;;;;;;;;;;;;17.34;53.27;101008.59;5308011;32;44898;-82
2023/05/13 13:35:48;;;;;;;;;;;;;;;18.10;50.27;100997.91;5313654;32;35058;-83
2023/05/13 13:38:50;;;;;;;;;;;;;;;16.27;54.76;101010.94;5308958;32;34980;-84
2023/05/13 13:41:51;;;;;;;;;;;;;;;16.69;54.37;101008.62;5336911;32;34866;-82
2023/05/13 13:44:53;;;;;;;;;;;;;;;16.85;54.04;101006.03;5313019;32;35767;-76
2023/05/13 13:47:55;;;;;;;;;;;;;;;17.18;52.88;101008.59;5309880;32;34404;-79
2023/05/13 13:50:58;;;;;;;;;;;;;;;17.74;50.86;101012.47;5317882;32;35226;-69
2023/05/13 13:54:04;;;;;;;;;;;;;;;17.46;51.69;101009.69;5324406;32;35595;-78
2023/05/13 13:57:06;;;;;;;;;;;;;;;17.47;51.55;101009.59;5332585;32;35235;-84
2023/05/13 14:00:08;;;;;;;;;;;;;;;17.86;51.12;101005.56;5331254;32;34911;-85
2023/05/13 14:03:10;;;;;;;;;;;;;;;17.44;52.49;101003.56;5337379;32;35153;-84
2023/05/13 14:06:12;;;;;;;;;;;;;;;16.54;54.46;101004.16;5331589;32;34993;-69
2023/05/13 14:09:14;;;;;;;;;;;;;;;17.30;52.70;101004.38;5313040;32;35139;-77
2023/05/13 14:12:16;;;;;;;;;;;;;;;16.50;54.71;100992.00;5335035;32;44988;-70
2023/05/13 14:15:18;;;;;;;;;;;;;;;16.30;55.76;100995.72;5325575;32;34752;-84
2023/05/13 14:18:20;;;;;;;;;;;;;;;16.43;54.78;100998.59;5335018;32;35069;-69
2023/05/13 14:21:22;;;;;;;;;;;;;;;17.02;53.65;100997.13;5325742;32;35557;-69
2023/05/13 14:24:26;;;;;;;;;;;;;;;17.06;53.97;100985.38;5335392;32;36119;-69
2023/05/13 14:27:28;;;;;;;;;;;;;;;17.57;52.48;100978.00;5326551;32;35436;-70
2023/05/13 14:30:30;;;;;;;;;;;;;;;17.10;54.15;100978.94;5311683;32;35150;-84
2023/05/13 14:33:32;;;;;;;;;;;;;;;16.88;53.93;100979.31;5334084;32;34613;-83
2023/05/13 14:36:34;;;;;;;;;;;;;;;17.50;52.99;100976.66;5300506;32;35391;-69
2023/05/13 14:39:36;;;;;;;;;;;;;;;17.18;52.84;100974.06;5335182;32;35027;-84
2023/05/13 14:42:39;;;;;;;;;;;;;;;17.12;53.41;100961.12;5325100;32;34852;-74
2023/05/13 14:45:41;;;;;;;;;;;;;;;17.36;53.45;100969.47;5332979;32;36412;-69
2023/05/13 14:48:43;;;;;;;;;;;;;;;16.73;54.74;100973.03;5292148;32;35188;-69
2023/05/13 14:51:45;;;;;;;;;;;;;;;17.39;52.86;100965.78;5330886;32;34899;-78
2023/05/13 14:54:47;;;;;;;;;;;;;;;16.58;55.13;100973.00;5339347;32;47156;-69
2023/05/13 14:57:49;;;;;;;;;;;;;;;16.47;55.02;100976.22;5324753;32;35450;-69
2023/05/13 15:00:52;;;;;;;;;;;;;;;17.49;52.51;100972.28;5335409;32;35271;-83
2023/05/13 15:03:54;;;;;;;;;;;;;;;16.83;54.10;100985.81;5310248;32;34776;-80
2023/05/13 15:06:56;;;;;;;;;;;;;;;16.98;53.44;100972.53;5329807;32;35082;-83
2023/05/13 15:09:58;;;;;;;;;;;;;;;17.18;53.70;100970.53;5331188;32;35959;-70
2023/05/13 15:13:00;;;;;;;;;;;;;;;16.93;54.49;100974.56;5331121;32;35126;-68
2023/05/13 15:16:02;;;;;;;;;;;;;;;16.99;54.03;100968.94;5334114;32;34946;-78
2023/05/13 15:19:05;;;;;;;;;;;;;;;16.81;55.23;100969.09;5330928;32;34330;-70
2023/05/13 15:22:07;;;;;;;;;;;;;;;17.08;53.86;100970.22;5337382;32;35020;-83
2023/05/13 15:25:09;;;;;;;;;;;;;;;16.99;54.37;100968.94;5330219;32;35354;-83
2023/05/13 15:28:11;;;;;;;;;;;;;;;16.92;54.41;100959.59;5338845;32;33976;-68
2023/05/13 15:31:13;;;;;;;;;;;;;;;17.41;53.16;100969.22;5327904;32;34839;-69
2023/05/13 15:34:15;;;;;;;;;;;;;;;17.57;52.56;100964.72;5326028;32;46544;-70
2023/05/13 15:37:17;;;;;;;;;;;;;;;16.82;54.42;100966.38;5316814;32;35674;-85
2023/05/13 15:40:19;;;;;;;;;;;;;;;17.07;54.37;100965.87;5329096;32;35628;-68